createdAt,value
2023-03-06T00:01:59.507Z,1.15
2023-03-06T00:04:26.065Z,1.20
2023-03-06T00:06:54.019Z,1.30
2023-03-06T00:09:20.478Z,1.20
2023-03-06T00:11:46.971Z,1.27
2023-03-06T00:14:13.483Z,1.30
2023-03-06T00:16:40.071Z,1.30
2023-03-06T00:19:06.555Z,1.52
2023-03-06T00:21:32.973Z,1.40
2023-03-06T00:23:59.409Z,1.15
2023-03-06T00:26:25.977Z,1.60
2023-03-06T00:28:52.470Z,1.08
2023-03-06T00:31:18.927Z,1.42
2023-03-06T00:33:45.460Z,1.23
2023-03-06T00:36:11.913Z,1.42
2023-03-06T00:38:40.661Z,1.42
2023-03-06T00:41:08.814Z,1.25
2023-03-06T00:43:35.232Z,1.40
2023-03-06T00:46:02.049Z,1.60
2023-03-06T00:48:28.576Z,1.40
2023-03-06T00:50:55.065Z,1.52
2023-03-06T00:53:21.524Z,1.42
2023-03-06T00:55:50.289Z,1.45
2023-03-06T00:58:17.166Z,1.90
2023-03-06T01:00:44.292Z,1.77
2023-03-06T01:03:10.997Z,1.83
2023-03-06T01:05:37.965Z,1.70
2023-03-06T01:08:06.304Z,2.00
2023-03-06T01:10:33.506Z,1.80
2023-03-06T01:12:59.973Z,1.90
2023-03-06T01:15:26.421Z,1.73
2023-03-06T01:17:54.458Z,2.33
2023-03-06T01:20:21.886Z,2.13
2023-03-06T01:22:48.518Z,2.45
2023-03-06T01:25:15.042Z,2.22
2023-03-06T01:27:42.453Z,2.58
2023-03-06T01:30:11.265Z,3.00
2023-03-06T01:32:38.707Z,2.28
2023-03-06T01:35:06.364Z,2.63
2023-03-06T01:37:34.980Z,2.97
2023-03-06T01:40:02.625Z,2.60
2023-03-06T01:42:29.981Z,2.92
2023-03-06T01:45:12.390Z,3.42
2023-03-06T01:47:39.251Z,3.70
2023-03-06T01:50:08.616Z,3.72
2023-03-06T01:52:43.230Z,3.92
2023-03-06T01:55:19.446Z,4.28
2023-03-06T02:00:21.302Z,3.67
2023-03-06T02:02:53.854Z,4.13
2023-03-06T02:05:21.047Z,4.05
2023-03-06T02:07:48.452Z,3.83
2023-03-06T02:10:16.221Z,4.18
2023-03-06T02:12:46.670Z,3.80
2023-03-06T02:15:16.493Z,5.07
2023-03-06T02:17:45.646Z,4.80
2023-03-06T02:20:21.174Z,4.88
2023-03-06T02:23:10.140Z,5.10
2023-03-06T02:25:49.490Z,4.28
2023-03-06T02:28:19.514Z,4.55
2023-03-06T02:30:47.509Z,4.57
2023-03-06T02:33:16.561Z,5.57
2023-03-06T02:35:49.978Z,5.63
2023-03-06T02:38:18.327Z,5.72
2023-03-06T02:40:48.818Z,5.90
2023-03-06T02:43:20.055Z,6.20
2023-03-06T02:45:49.991Z,6.32
2023-03-06T02:48:18.669Z,5.53
2023-03-06T02:53:14.283Z,5.40
2023-03-06T02:55:40.934Z,6.35
2023-03-06T02:58:08.115Z,5.88
2023-03-06T03:00:35.016Z,5.88
2023-03-06T03:03:05.040Z,7.45
2023-03-06T03:05:31.885Z,7.72
2023-03-06T03:08:05.265Z,6.90
2023-03-06T03:10:32.892Z,7.47
2023-03-06T03:12:59.437Z,6.80
2023-03-06T03:15:26.272Z,7.03
2023-03-06T03:17:52.755Z,7.35
2023-03-06T03:20:21.292Z,6.40
2023-03-06T03:22:53.797Z,6.72
2023-03-06T03:25:22.191Z,5.82
2023-03-06T03:27:48.888Z,5.75
2023-03-06T03:30:15.831Z,6.50
2023-03-06T03:32:42.387Z,6.05
2023-03-06T03:35:10.731Z,6.70
2023-03-06T03:37:37.883Z,6.00
2023-03-06T03:40:06.585Z,6.13
2023-03-06T03:42:33.327Z,6.75
2023-03-06T03:44:59.882Z,6.20
2023-03-06T03:47:27.174Z,6.15
2023-03-06T03:49:53.742Z,5.88
2023-03-06T03:52:20.971Z,6.53
2023-03-06T03:54:47.407Z,6.55
2023-03-06T03:57:13.919Z,6.25
2023-03-06T03:59:45.626Z,5.85
2023-03-06T04:02:44.885Z,5.07
2023-03-06T04:05:21.024Z,5.82
2023-03-06T04:07:48.326Z,5.70
2023-03-06T04:10:15.607Z,5.53
2023-03-06T04:12:42.624Z,5.85
2023-03-06T04:15:11.044Z,5.20
2023-03-06T04:17:38.489Z,5.38
2023-03-06T04:20:08.826Z,5.55
2023-03-06T04:22:36.289Z,5.45
2023-03-06T04:25:03.442Z,5.40
2023-03-06T04:27:29.951Z,5.13
2023-03-06T04:29:56.606Z,5.72
2023-03-06T04:32:23.997Z,5.28
2023-03-06T04:34:50.881Z,4.90
2023-03-06T04:37:22.940Z,4.85
2023-03-06T04:39:49.767Z,4.95
2023-03-06T04:42:16.299Z,4.95
2023-03-06T04:44:42.884Z,4.72
2023-03-06T04:47:09.617Z,4.80
2023-03-06T04:49:36.278Z,4.55
2023-03-06T04:52:02.865Z,5.10
2023-03-06T04:54:29.320Z,4.60
2023-03-06T04:56:55.944Z,4.60
2023-03-06T04:59:22.344Z,4.20
2023-03-06T05:01:48.900Z,4.25
2023-03-06T05:04:15.419Z,4.20
2023-03-06T05:06:41.958Z,3.20
2023-03-06T05:09:08.476Z,4.10
2023-03-06T05:11:34.944Z,3.42
2023-03-06T05:14:01.535Z,3.35
2023-03-06T05:16:28.076Z,3.10
2023-03-06T05:18:54.494Z,3.00
2023-03-06T05:21:20.975Z,2.78
2023-03-06T05:23:47.585Z,2.63
2023-03-06T05:26:15.108Z,2.45
2023-03-06T05:28:41.614Z,2.08
2023-03-06T05:31:08.023Z,2.53
2023-03-06T05:33:35.854Z,2.25
2023-03-06T05:36:02.859Z,2.63
2023-03-06T05:38:29.410Z,2.20
2023-03-06T05:40:56.033Z,2.33
2023-03-06T05:43:22.466Z,1.90
2023-03-06T05:45:50.437Z,2.35
2023-03-06T05:48:17.109Z,1.98
2023-03-06T05:50:43.595Z,2.30
2023-03-06T05:53:10.230Z,2.20
2023-03-06T05:55:36.814Z,2.00
2023-03-06T05:58:03.333Z,1.80
2023-03-06T06:00:29.929Z,1.92
2023-03-06T06:02:56.320Z,1.60
2023-03-06T06:05:22.798Z,1.90
2023-03-06T06:07:49.251Z,1.90
2023-03-06T06:10:15.863Z,1.95
2023-03-06T06:12:42.379Z,1.75
2023-03-06T06:15:09.153Z,1.77
2023-03-06T06:17:35.760Z,1.45
2023-03-06T06:20:02.359Z,1.95
2023-03-06T06:22:28.899Z,1.90
2023-03-06T06:24:55.438Z,1.58
2023-03-06T06:27:21.863Z,1.60
2023-03-06T06:29:51.230Z,1.58
2023-03-06T06:32:17.792Z,1.40
2023-03-06T06:34:44.279Z,1.10
2023-03-06T06:37:10.783Z,1.08
2023-03-06T06:39:37.238Z,1.13
2023-03-06T06:42:28.189Z,0.88
2023-03-06T06:44:50.265Z,0.95
2023-03-06T06:47:25.606Z,1.20
2023-03-06T06:49:54.476Z,0.90
2023-03-06T06:52:21.778Z,0.90
2023-03-06T06:54:48.228Z,0.70
2023-03-06T06:57:15.809Z,0.90
2023-03-06T06:59:42.706Z,0.82
2023-03-06T07:02:13.800Z,0.90
2023-03-06T07:04:52.192Z,0.90
2023-03-06T07:07:25.354Z,0.70
2023-03-06T07:09:51.993Z,0.82
2023-03-06T07:12:18.531Z,0.88
2023-03-06T07:14:44.995Z,0.88
2023-03-06T07:17:11.428Z,0.70
2023-03-06T07:19:38.687Z,0.68
2023-03-06T07:22:05.771Z,0.63
2023-03-06T07:24:32.299Z,0.80
2023-03-06T07:26:58.799Z,0.43
2023-03-06T07:29:25.337Z,0.85
2023-03-06T07:31:52.120Z,0.55
2023-03-06T07:34:18.527Z,0.57
2023-03-06T07:36:45.005Z,0.80
2023-03-06T07:39:11.485Z,0.70
2023-03-06T07:41:37.979Z,0.52
2023-03-06T07:44:04.463Z,0.55
2023-03-06T07:46:31.089Z,0.50
2023-03-06T07:48:58.203Z,0.57
2023-03-06T07:51:25.253Z,0.50
2023-03-06T07:53:51.765Z,0.60
2023-03-06T07:56:18.313Z,0.60
2023-03-06T07:58:46.915Z,0.55
2023-03-06T08:01:16.637Z,0.50
2023-03-06T08:03:43.813Z,0.50
2023-03-06T08:06:16.088Z,0.70
2023-03-06T08:08:44.405Z,0.50
2023-03-06T08:11:12.276Z,0.80
2023-03-06T08:13:39.510Z,0.50
2023-03-06T08:16:06.616Z,0.43
2023-03-06T08:18:33.607Z,0.70
2023-03-06T08:21:12.875Z,0.50
2023-03-06T08:23:40.251Z,0.40
2023-03-06T08:26:10.710Z,0.40
2023-03-06T08:28:37.264Z,0.40
2023-03-06T08:31:14.319Z,0.20
2023-03-06T08:33:40.860Z,0.35
2023-03-06T08:36:07.541Z,0.77
2023-03-06T08:38:34.003Z,0.30
2023-03-06T08:41:00.612Z,0.40
2023-03-06T08:43:27.093Z,0.40
2023-03-06T08:45:58.619Z,0.40
2023-03-06T08:48:25.507Z,0.40
2023-03-06T08:50:52.201Z,0.40
2023-03-06T08:53:18.762Z,0.50
2023-03-06T08:55:45.630Z,0.32
2023-03-06T08:58:12.205Z,0.32
2023-03-06T09:00:38.924Z,0.40
2023-03-06T09:03:05.779Z,0.32
2023-03-06T09:05:32.361Z,0.40
2023-03-06T09:07:58.838Z,0.40
2023-03-06T09:10:26.155Z,0.38
2023-03-06T09:12:55.118Z,0.40
2023-03-06T09:15:23.570Z,0.40
2023-03-06T09:17:50.882Z,0.20
2023-03-06T09:20:18.732Z,0.30
2023-03-06T09:22:45.886Z,0.30
2023-03-06T09:25:13.893Z,0.40
2023-03-06T09:27:40.871Z,0.47
2023-03-06T09:30:08.378Z,0.43
2023-03-06T09:32:34.954Z,0.60
2023-03-06T09:35:01.462Z,0.43
2023-03-06T09:37:27.966Z,0.40
2023-03-06T09:39:54.443Z,0.60
2023-03-06T09:42:23.600Z,0.50
2023-03-06T09:44:59.802Z,0.32
2023-03-06T09:47:44.603Z,0.85
2023-03-06T09:50:42.610Z,0.40
2023-03-06T09:53:18.619Z,0.50
2023-03-06T09:56:00.874Z,0.60
2023-03-06T09:58:29.818Z,0.50
2023-03-06T10:01:17.964Z,0.43
2023-03-06T10:03:59.674Z,0.50
2023-03-06T10:06:55.435Z,0.38
2023-03-06T10:09:27.884Z,0.40
2023-03-06T10:12:00.125Z,0.85
2023-03-06T10:14:37.362Z,0.30
2023-03-06T10:17:05.307Z,0.47
2023-03-06T10:19:37.620Z,0.47
2023-03-06T10:22:26.202Z,0.57
2023-03-06T10:25:33.308Z,0.40
2023-03-06T10:28:08.630Z,0.30
2023-03-06T10:30:46.210Z,0.50
2023-03-06T10:33:21.699Z,0.40
2023-03-06T10:35:53.367Z,0.40
2023-03-06T10:38:21.713Z,0.47
2023-03-06T10:41:02.021Z,0.30
2023-03-06T10:43:28.552Z,0.60
2023-03-06T10:45:55.165Z,0.40
2023-03-06T10:48:25.837Z,0.40
2023-03-06T10:50:54.838Z,0.32
2023-03-06T10:53:29.061Z,0.32
2023-03-06T10:56:00.158Z,0.40
2023-03-06T10:58:32.250Z,0.40
2023-03-06T11:01:07.085Z,0.98
2023-03-06T11:03:35.727Z,0.40
2023-03-06T11:06:30.538Z,0.43
2023-03-06T11:09:14.000Z,0.40
2023-03-06T11:11:40.625Z,0.60
2023-03-06T11:14:19.015Z,0.38
2023-03-06T11:16:53.657Z,0.68
2023-03-06T11:19:27.935Z,0.50
2023-03-06T11:22:19.409Z,0.32
2023-03-06T11:24:53.539Z,0.43
2023-03-06T11:27:34.412Z,0.40
2023-03-06T11:30:10.096Z,0.32
2023-03-06T11:32:52.366Z,0.35
2023-03-06T11:35:24.480Z,0.10
2023-03-06T11:38:17.054Z,0.17
2023-03-06T11:40:51.334Z,0.30
2023-03-06T11:43:35.264Z,0.20
2023-03-06T11:46:19.750Z,0.50
2023-03-06T11:49:18.677Z,0.60
2023-03-06T11:51:53.036Z,0.43
2023-03-06T11:54:19.785Z,0.60
2023-03-06T11:57:05.825Z,0.70
2023-03-06T12:00:02.229Z,0.70
2023-03-06T12:02:59.469Z,0.60
2023-03-06T12:05:32.619Z,0.70
2023-03-06T12:08:24.881Z,0.63
2023-03-06T12:13:28.676Z,0.80
2023-03-06T12:16:13.489Z,0.88
2023-03-06T12:18:50.850Z,0.77
2023-03-06T12:21:37.474Z,1.00
2023-03-06T12:24:24.262Z,0.85
2023-03-06T12:27:03.107Z,1.08
2023-03-06T12:29:38.808Z,0.88
2023-03-06T12:32:14.839Z,0.73
2023-03-06T12:34:59.141Z,0.73
2023-03-06T12:38:08.785Z,1.00
2023-03-06T12:40:58.449Z,1.00
2023-03-06T12:43:24.814Z,0.95
2023-03-06T12:46:03.550Z,1.05
2023-03-06T12:48:34.895Z,1.20
2023-03-06T12:51:02.370Z,0.93
2023-03-06T12:53:31.930Z,1.20
2023-03-06T12:56:01.967Z,1.08
2023-03-06T12:58:28.708Z,1.10
2023-03-06T13:01:14.565Z,0.88
2023-03-06T13:04:04.893Z,1.30
2023-03-06T13:06:50.757Z,0.95
2023-03-06T13:09:29.482Z,1.00
2023-03-06T13:12:25.540Z,1.10
2023-03-06T13:14:57.513Z,1.30
2023-03-06T13:17:27.361Z,1.13
2023-03-06T13:20:15.575Z,1.23
2023-03-06T13:22:44.844Z,1.42
2023-03-06T13:25:17.041Z,1.90
2023-03-06T13:27:55.611Z,1.55
2023-03-06T13:30:51.939Z,1.83
2023-03-06T13:33:39.080Z,2.60
2023-03-06T13:36:25.163Z,2.50
2023-03-06T13:38:51.791Z,3.00
2023-03-06T13:41:24.832Z,3.00
2023-03-06T13:43:56.753Z,3.00
2023-03-06T13:46:26.034Z,3.03
2023-03-06T13:49:07.873Z,2.75
2023-03-06T13:52:01.678Z,4.05
2023-03-06T13:54:37.263Z,3.92
2023-03-06T13:57:34.874Z,3.78
2023-03-06T14:00:16.311Z,4.07
2023-03-06T14:02:58.139Z,4.72
2023-03-06T14:05:33.143Z,4.25
2023-03-06T14:08:15.698Z,4.50
2023-03-06T14:10:44.791Z,4.60
2023-03-06T14:13:22.918Z,5.10
2023-03-06T14:15:52.582Z,4.88
2023-03-06T14:18:23.813Z,4.53
2023-03-06T14:21:13.332Z,4.40
2023-03-06T14:23:45.747Z,4.20
2023-03-06T14:26:17.233Z,4.47
2023-03-06T14:28:46.053Z,4.00
2023-03-06T14:31:18.855Z,4.10
2023-03-06T14:33:54.506Z,4.13
2023-03-06T14:36:23.402Z,3.65
2023-03-06T14:38:53.803Z,3.40
2023-03-06T14:41:35.254Z,3.00
2023-03-06T14:44:07.669Z,3.10
2023-03-06T14:46:34.152Z,3.28
2023-03-06T14:49:00.745Z,3.10
2023-03-06T14:51:27.678Z,3.20
2023-03-06T14:54:00.709Z,2.67
2023-03-06T14:56:27.594Z,2.85
2023-03-06T14:59:01.364Z,2.30
2023-03-06T15:01:31.140Z,2.95
2023-03-06T15:04:00.738Z,2.63
2023-03-06T15:06:39.521Z,2.88
2023-03-06T15:09:15.506Z,2.55
2023-03-06T15:11:59.117Z,2.97
2023-03-06T15:14:48.073Z,2.20
2023-03-06T15:17:17.500Z,2.72
2023-03-06T15:19:49.950Z,2.33
2023-03-06T15:22:30.628Z,2.58
2023-03-06T15:25:20.760Z,2.10
2023-03-06T15:27:53.168Z,2.45
2023-03-06T15:30:25.878Z,2.80
2023-03-06T15:33:08.096Z,2.17
2023-03-06T15:35:38.202Z,2.95
2023-03-06T15:38:24.144Z,2.63
2023-03-06T15:40:58.592Z,2.58
2023-03-06T15:43:25.282Z,2.70
2023-03-06T15:45:58.662Z,2.30
2023-03-06T15:48:25.567Z,2.72
2023-03-06T15:50:52.277Z,2.60
2023-03-06T15:53:20.235Z,2.88
2023-03-06T15:55:47.241Z,3.42
2023-03-06T15:58:17.335Z,3.08
2023-03-06T16:00:44.340Z,3.22
2023-03-06T16:03:11.720Z,3.65
2023-03-06T16:05:38.670Z,3.83
2023-03-06T16:08:05.857Z,4.03
2023-03-06T16:10:37.297Z,4.22
2023-03-06T16:13:13.740Z,4.32
2023-03-06T16:15:46.438Z,5.60
2023-03-06T16:18:13.575Z,5.88
2023-03-06T16:20:41.497Z,6.10
2023-03-06T16:23:10.517Z,5.80
2023-03-06T16:25:39.324Z,6.10
2023-03-06T16:28:11.519Z,6.28
2023-03-06T16:30:38.452Z,6.57
2023-03-06T16:33:05.231Z,6.90
2023-03-06T16:35:31.886Z,6.57
2023-03-06T16:37:59.861Z,6.60
2023-03-06T16:40:30.334Z,7.53
2023-03-06T16:42:56.781Z,6.75
2023-03-06T16:45:24.441Z,6.65
2023-03-06T16:47:51.111Z,7.63
2023-03-06T16:50:32.405Z,6.38
2023-03-06T16:52:59.315Z,7.40
2023-03-06T16:55:27.130Z,7.10
2023-03-06T16:57:54.108Z,8.63
2023-03-06T17:00:22.104Z,7.35
2023-03-06T17:02:49.144Z,7.90
2023-03-06T17:05:15.976Z,8.57
2023-03-06T17:07:42.488Z,7.75
2023-03-06T17:10:12.219Z,7.13
2023-03-06T17:12:38.907Z,7.30
2023-03-06T17:15:06.504Z,7.95
2023-03-06T17:17:33.636Z,7.82
2023-03-06T17:20:00.773Z,7.72
2023-03-06T17:22:27.748Z,7.82
2023-03-06T17:24:54.550Z,7.47
2023-03-06T17:27:22.657Z,8.07
2023-03-06T17:29:49.159Z,7.40
2023-03-06T17:32:15.657Z,7.53
2023-03-06T17:34:42.344Z,8.45
2023-03-06T17:37:08.881Z,7.38
2023-03-06T17:39:37.355Z,7.78
2023-03-06T17:42:05.492Z,8.63
2023-03-06T17:44:34.220Z,8.48
2023-03-06T17:47:00.730Z,6.60
2023-03-06T17:49:27.289Z,6.70
2023-03-06T17:51:55.082Z,7.70
2023-03-06T17:54:21.533Z,7.82
2023-03-06T17:56:48.273Z,7.55
2023-03-06T17:59:14.893Z,6.22
2023-03-06T18:01:41.482Z,7.75
2023-03-06T18:04:08.043Z,7.38
2023-03-06T18:06:34.577Z,6.90
2023-03-06T18:09:01.776Z,7.30
2023-03-06T18:11:28.392Z,7.30
2023-03-06T18:13:54.892Z,6.40
2023-03-06T18:16:24.726Z,6.18
2023-03-06T18:18:55.956Z,6.65
2023-03-06T18:21:23.541Z,6.38
2023-03-06T18:23:50.643Z,7.80
2023-03-06T18:26:25.773Z,7.72
2023-03-06T18:31:21.592Z,8.52
2023-03-06T18:33:49.145Z,9.52
2023-03-06T18:36:16.859Z,8.65
2023-03-06T18:38:45.461Z,9.55
2023-03-06T18:41:13.449Z,9.52
2023-03-06T18:43:40.068Z,8.75
2023-03-06T18:46:06.857Z,8.48
2023-03-06T18:48:33.454Z,8.55
2023-03-06T18:51:07.741Z,8.82
2023-03-06T18:53:34.905Z,8.75
2023-03-06T18:56:02.315Z,7.88
2023-03-06T18:58:28.959Z,8.23
2023-03-06T19:00:57.706Z,8.68
2023-03-06T19:03:25.438Z,8.82
2023-03-06T19:05:51.913Z,9.45
2023-03-06T19:08:18.512Z,8.52
2023-03-06T19:10:47.324Z,7.43
2023-03-06T19:13:14.717Z,8.38
2023-03-06T19:15:45.763Z,8.70
2023-03-06T19:18:16.042Z,8.57
2023-03-06T19:20:43.446Z,9.10
2023-03-06T19:23:10.821Z,9.38
2023-03-06T19:25:37.361Z,9.70
2023-03-06T19:28:04.031Z,9.18
2023-03-06T19:30:30.534Z,8.57
2023-03-06T19:32:57.234Z,10.02
2023-03-06T19:35:25.013Z,8.63
2023-03-06T19:37:52.022Z,9.68
2023-03-06T19:40:19.453Z,9.38
2023-03-06T19:42:46.693Z,8.98
2023-03-06T19:45:13.307Z,8.88
2023-03-06T19:47:39.956Z,10.50
2023-03-06T19:50:06.906Z,10.63
2023-03-06T19:52:36.452Z,9.30
2023-03-06T19:55:02.945Z,9.80
2023-03-06T19:57:29.469Z,8.70
2023-03-06T19:59:58.201Z,9.50
2023-03-06T20:02:27.143Z,10.05
2023-03-06T20:04:54.863Z,10.32
2023-03-06T20:07:21.818Z,9.55
2023-03-06T20:09:48.385Z,10.05
2023-03-06T20:12:15.523Z,10.35
2023-03-06T20:14:42.845Z,9.63
2023-03-06T20:17:09.253Z,10.95
2023-03-06T20:19:36.490Z,10.40
2023-03-06T20:22:03.220Z,9.07
2023-03-06T20:24:29.623Z,10.32
2023-03-06T20:26:57.647Z,9.98
2023-03-06T20:29:26.644Z,10.95
2023-03-06T20:31:56.032Z,11.07
2023-03-06T20:34:23.386Z,10.05
2023-03-06T20:36:50.315Z,10.27
2023-03-06T20:39:19.188Z,10.65
2023-03-06T20:41:46.694Z,11.00
2023-03-06T20:44:17.059Z,10.77
2023-03-06T20:46:44.238Z,10.68
2023-03-06T20:49:12.314Z,9.90
2023-03-06T20:51:39.551Z,10.43
2023-03-06T20:54:08.677Z,10.68
2023-03-06T20:56:36.675Z,9.77
2023-03-06T20:59:03.309Z,10.32
2023-03-06T21:01:32.115Z,10.55
2023-03-06T21:03:59.399Z,10.40
2023-03-06T21:06:28.010Z,9.68
2023-03-06T21:08:55.691Z,10.55
2023-03-06T21:11:22.132Z,11.30
2023-03-06T21:13:48.636Z,9.93
2023-03-06T21:16:18.649Z,10.48
2023-03-06T21:18:46.133Z,11.20
2023-03-06T21:21:16.269Z,10.27
2023-03-06T21:23:42.804Z,10.38
2023-03-06T21:26:14.061Z,9.85
2023-03-06T21:28:41.097Z,10.63
2023-03-06T21:31:09.983Z,9.70
2023-03-06T21:33:37.132Z,10.25
2023-03-06T21:36:04.331Z,11.52
2023-03-06T21:38:31.175Z,9.48
2023-03-06T21:41:26.666Z,10.13
2023-03-06T21:43:58.358Z,9.07
2023-03-06T21:46:26.484Z,9.95
2023-03-06T21:48:53.622Z,8.40
2023-03-06T21:51:21.178Z,9.07
2023-03-06T21:53:48.358Z,9.23
2023-03-06T21:56:17.078Z,10.02
2023-03-06T21:58:44.215Z,8.75
2023-03-06T22:01:20.046Z,8.68
2023-03-06T22:03:46.831Z,8.63
2023-03-06T22:06:16.590Z,8.85
2023-03-06T22:08:43.979Z,9.07
2023-03-06T22:11:13.628Z,7.18
2023-03-06T22:13:40.615Z,8.18
2023-03-06T22:16:07.792Z,6.90
2023-03-06T22:18:35.453Z,6.05
2023-03-06T22:21:09.435Z,6.05
2023-03-06T22:23:36.229Z,6.15
2023-03-06T22:26:07.794Z,6.22
2023-03-06T22:28:34.932Z,6.07
2023-03-06T22:31:07.707Z,5.45
2023-03-06T22:33:34.519Z,5.13
2023-03-06T22:36:05.288Z,4.55
2023-03-06T22:38:35.817Z,4.60
2023-03-06T22:41:03.789Z,4.45
2023-03-06T22:43:32.257Z,4.53
2023-03-06T22:46:09.832Z,4.10
2023-03-06T22:48:36.603Z,3.80
2023-03-06T22:51:09.471Z,4.20
2023-03-06T22:53:37.052Z,4.10
2023-03-06T22:56:05.552Z,3.83
2023-03-06T22:58:37.241Z,3.33
2023-03-06T23:01:15.610Z,3.90
2023-03-06T23:03:44.583Z,3.72
2023-03-06T23:06:17.143Z,3.42
2023-03-06T23:08:48.106Z,3.33
2023-03-06T23:11:16.512Z,3.60
2023-03-06T23:14:01.722Z,3.67
2023-03-06T23:16:46.688Z,3.30
2023-03-06T23:19:31.846Z,3.40
2023-03-06T23:22:16.903Z,3.08
2023-03-06T23:25:02.018Z,3.05
2023-03-06T23:27:29.314Z,3.50
2023-03-06T23:29:58.826Z,2.95
2023-03-06T23:32:25.414Z,2.53
2023-03-06T23:34:51.886Z,2.38
2023-03-06T23:37:18.333Z,2.65
2023-03-06T23:39:45.389Z,2.83
2023-03-06T23:42:11.862Z,2.80
2023-03-06T23:44:38.343Z,2.83
2023-03-06T23:47:04.923Z,3.05
2023-03-06T23:49:31.372Z,3.55
2023-03-06T23:51:58.120Z,3.42
2023-03-06T23:54:24.612Z,3.58
2023-03-06T23:56:51.037Z,4.10
2023-03-06T23:59:17.447Z,3.30
